Chesley, Canada
Current Conditions -  °F | °C
As of 3:00 PM on Sunday 25 Jan 2015 (Local Time) from CYVV Reporting Station
Rain Showers Rain Showers  
Wind Chill: 12°   Ceiling: 25000
Heat Index: 12°   Visibility: 15mi
Dew Point:   Wind: 3mph
Humidity: 67%   Direction: 360°N
Pressure: 30"   Gusts: NA
Location:  44.3°N, 81.1°W
Report Text: CYVV 252000Z 36003KT 340V060 15SM VCSH SCT020 OVC250 M11/M16 A3000 RMK SC4CI4 SLP176
Loading
Personal Weather Stations






























Interactive Weather Map New forecast layout! Learn more

10-Day Weather Forecast

Advertisements
Track Severe Weather on mobile